createdAt,value
2022-08-09T00:01:24.754Z,19.27
2022-08-09T00:04:25.151Z,19.37
2022-08-09T00:06:56.343Z,19.59
2022-08-09T00:09:28.019Z,19.66
2022-08-09T00:12:03.635Z,19.72
2022-08-09T00:14:37.957Z,19.73
2022-08-09T00:17:08.128Z,19.62
2022-08-09T00:19:37.798Z,19.58
2022-08-09T00:22:09.680Z,19.58
2022-08-09T00:24:42.238Z,19.49
2022-08-09T00:27:11.618Z,19.41
2022-08-09T00:30:16.782Z,19.48
2022-08-09T00:32:32.460Z,19.69
2022-08-09T00:35:03.625Z,19.71
2022-08-09T00:37:32.738Z,19.73
2022-08-09T00:40:12.806Z,19.77
2022-08-09T00:44:13.033Z,19.80
2022-08-09T00:45:35.672Z,19.63
2022-08-09T00:48:06.759Z,19.69
2022-08-09T00:50:37.870Z,19.56
2022-08-09T00:53:10.242Z,19.52
2022-08-09T00:56:05.073Z,19.79
2022-08-09T00:58:34.509Z,19.79
2022-08-09T01:01:08.637Z,19.80
2022-08-09T01:03:51.548Z,19.68
2022-08-09T01:06:35.144Z,19.83
2022-08-09T01:09:36.786Z,19.81
2022-08-09T01:12:19.149Z,19.68
2022-08-09T01:14:56.765Z,19.57
2022-08-09T01:17:34.188Z,19.42
2022-08-09T01:20:07.643Z,19.55
2022-08-09T01:24:01.902Z,19.63
2022-08-09T01:26:19.506Z,19.38
2022-08-09T01:28:54.641Z,19.48
2022-08-09T01:32:29.526Z,19.73
2022-08-09T01:34:22.538Z,19.73
2022-08-09T01:36:52.432Z,19.64
2022-08-09T01:39:24.362Z,19.40
2022-08-09T01:42:01.435Z,19.51
2022-08-09T01:44:36.106Z,19.55
2022-08-09T01:47:06.975Z,19.69
2022-08-09T01:49:42.269Z,19.70
2022-08-09T01:52:22.228Z,19.76
2022-08-09T01:54:56.723Z,19.86
2022-08-09T01:57:29.727Z,19.69
2022-08-09T02:00:35.001Z,19.75
2022-08-09T02:03:06.522Z,19.79
2022-08-09T02:05:37.919Z,19.60
2022-08-09T02:08:40.098Z,19.54
2022-08-09T02:11:17.078Z,19.64
2022-08-09T02:13:55.310Z,19.53
2022-08-09T02:16:59.154Z,19.51
2022-08-09T02:19:38.711Z,19.66
2022-08-09T02:22:19.133Z,19.82
2022-08-09T02:25:03.754Z,19.73
2022-08-09T02:27:58.139Z,19.86
2022-08-09T02:30:29.651Z,19.82
2022-08-09T02:33:03.179Z,19.70
2022-08-09T02:36:01.426Z,19.69
2022-08-09T02:38:32.418Z,19.67
2022-08-09T02:41:09.511Z,19.69
2022-08-09T02:43:53.954Z,19.58
2022-08-09T02:46:28.772Z,19.70
2022-08-09T02:49:03.967Z,19.67
2022-08-09T02:51:40.578Z,19.76
2022-08-09T02:54:14.128Z,19.82
2022-08-09T02:56:51.104Z,19.71
2022-08-09T02:59:26.423Z,19.52
2022-08-09T03:02:12.282Z,19.30
2022-08-09T03:04:50.861Z,19.51
2022-08-09T03:07:22.848Z,19.58
2022-08-09T03:09:56.788Z,19.66
2022-08-09T03:14:07.102Z,19.76
2022-08-09T03:16:41.726Z,19.48
2022-08-09T03:19:58.854Z,19.56
2022-08-09T03:22:12.077Z,19.70
2022-08-09T03:25:06.387Z,19.58
2022-08-09T03:27:46.262Z,19.71
2022-08-09T03:30:29.523Z,19.60
2022-08-09T03:33:13.145Z,19.71
2022-08-09T03:36:13.381Z,19.78
2022-08-09T03:38:43.585Z,19.73
2022-08-09T03:41:16.285Z,19.76
2022-08-09T03:44:03.535Z,19.78
2022-08-09T03:46:37.380Z,19.94
2022-08-09T03:49:09.680Z,19.85
2022-08-09T03:51:57.123Z,19.78
2022-08-09T03:54:34.642Z,19.89
2022-08-09T03:57:18.120Z,20.08
2022-08-09T03:59:55.448Z,20.12
2022-08-09T04:02:28.895Z,20.11
2022-08-09T04:05:00.707Z,20.31
2022-08-09T04:07:47.381Z,20.31
2022-08-09T04:10:29.461Z,20.43
2022-08-09T04:13:04.252Z,20.26
2022-08-09T04:16:17.562Z,20.17
2022-08-09T04:18:24.991Z,20.18
2022-08-09T04:20:54.565Z,20.34
2022-08-09T04:23:25.771Z,20.35
2022-08-09T04:25:57.401Z,20.47
2022-08-09T04:28:33.195Z,20.45
2022-08-09T04:31:05.846Z,20.63
2022-08-09T04:33:52.527Z,20.40
2022-08-09T04:36:25.283Z,20.72
2022-08-09T04:38:54.789Z,20.72
2022-08-09T04:41:32.781Z,20.86
2022-08-09T04:44:06.915Z,20.76
2022-08-09T04:46:59.606Z,20.78
2022-08-09T04:49:53.049Z,20.72
2022-08-09T04:52:26.618Z,20.59
2022-08-09T04:54:56.565Z,20.55
2022-08-09T04:57:59.173Z,20.67
2022-08-09T05:00:17.322Z,20.67
2022-08-09T05:02:52.033Z,20.92
2022-08-09T05:05:32.011Z,20.82
2022-08-09T05:08:14.062Z,21.02
2022-08-09T05:10:44.869Z,21.09
2022-08-09T05:13:15.741Z,21.11
2022-08-09T05:15:47.893Z,21.06
2022-08-09T05:18:38.720Z,21.28
2022-08-09T05:21:10.077Z,21.41
2022-08-09T05:23:59.870Z,21.62
2022-08-09T05:26:37.316Z,21.71
2022-08-09T05:29:21.562Z,21.94
2022-08-09T05:31:57.500Z,21.94
2022-08-09T05:34:31.128Z,21.89
2022-08-09T05:37:06.286Z,21.91
2022-08-09T05:39:42.414Z,21.92
2022-08-09T05:42:17.901Z,22.15
2022-08-09T05:44:54.623Z,22.07
2022-08-09T05:47:27.108Z,22.17
2022-08-09T05:50:32.466Z,22.43
2022-08-09T05:52:53.339Z,22.73
2022-08-09T05:55:24.214Z,22.99
2022-08-09T05:57:56.670Z,22.59
2022-08-09T06:00:30.198Z,22.90
2022-08-09T06:03:00.723Z,22.71
2022-08-09T06:05:57.713Z,23.09
2022-08-09T06:08:24.537Z,23.41
2022-08-09T06:10:56.083Z,23.57
2022-08-09T06:13:25.558Z,23.64
2022-08-09T06:15:59.270Z,23.87
2022-08-09T06:18:30.933Z,24.16
2022-08-09T06:21:00.516Z,24.43
2022-08-09T06:23:57.302Z,24.28
2022-08-09T06:26:22.228Z,24.02
2022-08-09T06:28:59.599Z,23.95
2022-08-09T06:31:39.160Z,23.92
2022-08-09T06:34:23.367Z,24.18
2022-08-09T06:36:57.227Z,24.13
2022-08-09T06:39:49.165Z,24.11
2022-08-09T06:42:20.283Z,23.46
2022-08-09T06:44:54.706Z,23.90
2022-08-09T06:47:25.470Z,24.21
2022-08-09T06:50:14.128Z,24.52
2022-08-09T06:52:48.730Z,24.75
2022-08-09T06:55:22.241Z,24.33
2022-08-09T06:58:03.117Z,24.56
2022-08-09T07:00:51.875Z,25.00
2022-08-09T07:03:27.969Z,24.67
2022-08-09T07:06:04.576Z,24.53
2022-08-09T07:08:37.337Z,24.68
2022-08-09T07:11:12.781Z,24.70
2022-08-09T07:14:04.416Z,24.62
2022-08-09T07:16:41.286Z,24.80
2022-08-09T07:19:23.382Z,25.12
2022-08-09T07:21:55.370Z,25.24
2022-08-09T07:24:31.494Z,25.21
2022-08-09T07:27:02.964Z,25.46
2022-08-09T07:29:37.988Z,25.07
2022-08-09T07:32:12.122Z,24.88
2022-08-09T07:34:42.822Z,24.62
2022-08-09T07:37:15.808Z,24.22
2022-08-09T07:39:46.455Z,24.24
2022-08-09T07:42:15.863Z,25.07
2022-08-09T07:44:51.852Z,24.83
2022-08-09T07:47:23.612Z,24.82
2022-08-09T07:50:08.060Z,24.99
2022-08-09T07:52:41.349Z,25.48
2022-08-09T07:55:12.820Z,25.45
2022-08-09T07:57:46.998Z,25.16
2022-08-09T08:00:20.653Z,25.32
2022-08-09T08:03:08.244Z,24.70
2022-08-09T08:05:57.886Z,25.04
2022-08-09T08:09:01.017Z,25.31
2022-08-09T08:12:10.819Z,25.27
2022-08-09T08:14:06.608Z,24.99
2022-08-09T08:16:35.919Z,25.36
2022-08-09T08:19:08.548Z,25.37
2022-08-09T08:21:39.564Z,24.82
2022-08-09T08:24:11.851Z,25.27
2022-08-09T08:26:56.065Z,25.27
2022-08-09T08:29:27.927Z,25.38
2022-08-09T08:32:04.191Z,25.68
2022-08-09T08:34:36.542Z,25.76
2022-08-09T08:37:07.218Z,26.42
2022-08-09T08:39:44.787Z,25.81
2022-08-09T08:42:14.484Z,25.95
2022-08-09T08:44:46.440Z,25.12
2022-08-09T08:47:17.484Z,25.09
2022-08-09T08:49:49.319Z,25.26
2022-08-09T08:52:57.531Z,25.82
2022-08-09T08:55:15.304Z,26.69
2022-08-09T08:57:56.814Z,26.56
2022-08-09T09:00:30.015Z,26.97
2022-08-09T09:03:11.999Z,27.12
2022-08-09T09:06:00.169Z,27.72
2022-08-09T09:08:40.373Z,27.58
2022-08-09T09:11:13.566Z,27.51
2022-08-09T09:13:57.187Z,27.87
2022-08-09T09:16:34.391Z,28.43
2022-08-09T09:19:40.242Z,28.30
2022-08-09T09:22:04.181Z,28.44
2022-08-09T09:24:39.707Z,28.60
2022-08-09T09:27:22.109Z,28.48
2022-08-09T09:30:26.112Z,28.81
2022-08-09T09:33:15.598Z,28.78
2022-08-09T09:36:02.707Z,29.14
2022-08-09T09:38:44.588Z,29.12
2022-08-09T09:41:33.534Z,29.35
2022-08-09T09:44:27.645Z,28.43
2022-08-09T09:47:08.406Z,28.12
2022-08-09T09:50:13.236Z,28.53
2022-08-09T09:52:37.225Z,29.14
2022-08-09T09:55:27.851Z,29.69
2022-08-09T09:58:16.413Z,29.73
2022-08-09T10:00:55.276Z,29.67
2022-08-09T10:03:44.064Z,30.61
2022-08-09T10:06:14.607Z,29.51
2022-08-09T10:08:57.240Z,29.96
2022-08-09T10:12:11.435Z,30.19
2022-08-09T10:14:33.085Z,30.41
2022-08-09T10:17:39.150Z,29.97
2022-08-09T10:20:00.478Z,30.97
2022-08-09T10:22:34.494Z,31.09
2022-08-09T10:25:12.171Z,30.65
2022-08-09T10:27:56.331Z,31.19
2022-08-09T10:34:08.256Z,31.81
2022-08-09T10:36:12.002Z,32.46
2022-08-09T10:38:56.981Z,33.10
2022-08-09T10:41:29.363Z,34.41
2022-08-09T10:44:02.151Z,36.45
2022-08-09T10:47:04.002Z,37.56
2022-08-09T10:49:51.738Z,36.40
2022-08-09T10:52:42.835Z,35.10
2022-08-09T10:55:25.186Z,36.51
2022-08-09T10:57:59.827Z,37.81
2022-08-09T11:03:05.646Z,37.88
2022-08-09T11:03:49.946Z,37.26
2022-08-09T11:06:26.160Z,37.88
2022-08-09T11:09:15.371Z,38.93
2022-08-09T11:12:13.515Z,39.85
2022-08-09T11:14:45.015Z,38.51
2022-08-09T11:17:53.521Z,42.25
2022-08-09T11:20:57.848Z,40.85
2022-08-09T11:23:30.120Z,43.10
2022-08-09T11:26:00.324Z,39.65
2022-08-09T11:28:38.604Z,41.00
2022-08-09T11:31:49.933Z,42.12
2022-08-09T11:34:43.877Z,43.29
2022-08-09T11:37:31.217Z,42.09
2022-08-09T11:40:12.470Z,37.69
2022-08-09T11:42:50.146Z,35.06
2022-08-09T11:45:22.957Z,35.40
2022-08-09T11:48:03.496Z,34.75
2022-08-09T11:53:02.090Z,32.46
2022-08-09T11:54:28.007Z,33.11
2022-08-09T11:57:47.841Z,36.15
2022-08-09T12:00:31.721Z,42.54
2022-08-09T12:03:31.794Z,40.25
2022-08-09T12:05:53.548Z,37.61
2022-08-09T12:08:23.736Z,39.48
2022-08-09T12:10:57.624Z,43.52
2022-08-09T12:14:09.478Z,44.14
2022-08-09T12:16:30.431Z,44.40
2022-08-09T12:19:09.434Z,45.58
2022-08-09T12:21:48.794Z,43.98
2022-08-09T12:24:24.085Z,45.11
2022-08-09T12:28:59.164Z,43.54
2022-08-09T12:30:01.428Z,43.78
2022-08-09T12:32:48.742Z,42.79
2022-08-09T12:35:19.244Z,44.02
2022-08-09T12:37:53.614Z,42.48
2022-08-09T12:40:26.875Z,44.43
2022-08-09T12:42:58.187Z,45.41
2022-08-09T12:45:34.057Z,44.56
2022-08-09T12:48:20.082Z,43.69
2022-08-09T12:50:58.324Z,41.67
2022-08-09T12:53:37.661Z,42.36
2022-08-09T12:56:39.669Z,43.72
2022-08-09T12:59:10.544Z,44.50
2022-08-09T13:01:48.680Z,42.96
2022-08-09T13:04:35.946Z,42.69
2022-08-09T13:07:14.449Z,41.91
2022-08-09T13:09:56.004Z,42.45
2022-08-09T13:12:30.802Z,42.19
2022-08-09T13:15:08.831Z,41.92
2022-08-09T13:17:58.877Z,40.52
2022-08-09T13:20:37.510Z,40.92
2022-08-09T13:24:17.304Z,43.43
2022-08-09T13:26:41.735Z,40.40
2022-08-09T13:29:15.041Z,40.75
2022-08-09T13:32:16.177Z,38.34
2022-08-09T13:34:49.526Z,38.25
2022-08-09T13:37:51.231Z,39.15
2022-08-09T13:41:56.539Z,39.22
2022-08-09T13:43:03.625Z,40.13
2022-08-09T13:46:42.450Z,40.15
2022-08-09T13:48:26.335Z,40.71
2022-08-09T13:50:59.096Z,41.76
2022-08-09T13:53:43.618Z,41.28
2022-08-09T13:56:13.983Z,40.95
2022-08-09T13:58:43.490Z,42.26
2022-08-09T14:01:13.400Z,41.10
2022-08-09T14:04:11.275Z,39.44
2022-08-09T14:06:43.663Z,41.22
2022-08-09T14:09:15.827Z,40.77
2022-08-09T14:11:47.233Z,40.74
2022-08-09T14:14:26.838Z,41.45
2022-08-09T14:16:57.088Z,39.02
2022-08-09T14:19:30.348Z,41.18
2022-08-09T14:22:02.581Z,40.96
2022-08-09T14:24:32.591Z,39.07
2022-08-09T14:27:02.752Z,36.71
2022-08-09T14:30:36.360Z,35.11
2022-08-09T14:32:30.717Z,36.12
2022-08-09T14:35:02.245Z,36.02
2022-08-09T14:37:41.352Z,37.72
2022-08-09T14:40:38.808Z,39.02
2022-08-09T14:43:12.421Z,35.65
2022-08-09T14:46:54.106Z,33.49
2022-08-09T14:48:37.237Z,32.84
2022-08-09T14:51:08.219Z,32.60
2022-08-09T14:53:40.003Z,33.70
2022-08-09T14:56:15.941Z,33.10
2022-08-09T14:58:45.490Z,32.42
2022-08-09T15:01:16.191Z,31.27
2022-08-09T15:03:49.059Z,32.46
2022-08-09T15:06:19.319Z,31.36
2022-08-09T15:08:56.307Z,33.11
2022-08-09T15:11:26.374Z,33.43
2022-08-09T15:14:04.699Z,36.00
2022-08-09T15:16:43.073Z,36.90
2022-08-09T15:19:17.876Z,35.41
2022-08-09T15:21:58.871Z,33.79
2022-08-09T15:24:31.056Z,34.99
2022-08-09T15:27:01.901Z,34.20
2022-08-09T15:30:57.552Z,35.26
2022-08-09T15:32:29.773Z,35.97
2022-08-09T15:35:00.943Z,34.86
2022-08-09T15:37:57.351Z,33.51
2022-08-09T15:40:32.223Z,34.91
2022-08-09T15:43:02.766Z,34.08
2022-08-09T15:46:07.703Z,33.32
2022-08-09T15:48:29.095Z,32.68
2022-08-09T15:51:00.118Z,33.05
2022-08-09T15:54:03.959Z,32.17
2022-08-09T15:56:28.324Z,33.28
2022-08-09T15:58:58.865Z,32.29
2022-08-09T16:01:31.519Z,31.52
2022-08-09T16:04:05.292Z,31.58
2022-08-09T16:06:44.687Z,30.95
2022-08-09T16:09:51.484Z,30.89
2022-08-09T16:12:11.302Z,30.35
2022-08-09T16:14:41.087Z,29.32
2022-08-09T16:17:11.971Z,29.35
2022-08-09T16:19:49.012Z,29.74
2022-08-09T16:22:34.199Z,28.77
2022-08-09T16:25:08.259Z,29.24
2022-08-09T16:27:37.649Z,28.87
2022-08-09T16:30:09.505Z,28.30
2022-08-09T16:33:01.751Z,27.91
2022-08-09T16:35:56.438Z,27.64
2022-08-09T16:38:20.103Z,27.87
2022-08-09T16:40:53.293Z,26.73
2022-08-09T16:43:22.151Z,26.27
2022-08-09T16:45:53.514Z,26.61
2022-08-09T16:48:41.537Z,26.67
2022-08-09T16:51:14.053Z,25.85
2022-08-09T16:54:08.906Z,25.83
2022-08-09T16:56:36.407Z,26.09
2022-08-09T16:59:10.728Z,25.45
2022-08-09T17:01:43.078Z,26.09
2022-08-09T17:04:28.328Z,25.57
2022-08-09T17:08:40.629Z,25.67
2022-08-09T17:09:48.797Z,25.33
2022-08-09T17:12:21.095Z,24.94
2022-08-09T17:14:57.214Z,25.16
2022-08-09T17:17:27.978Z,24.65
2022-08-09T17:20:28.855Z,24.90
2022-08-09T17:22:51.940Z,24.53
2022-08-09T17:25:23.476Z,24.44
2022-08-09T17:27:55.922Z,24.01
2022-08-09T17:30:28.081Z,23.84
2022-08-09T17:33:00.835Z,23.66
2022-08-09T17:35:41.008Z,23.69
2022-08-09T17:38:14.244Z,23.24
2022-08-09T17:40:59.637Z,23.17
2022-08-09T17:43:35.717Z,22.99
2022-08-09T17:46:09.846Z,23.06
2022-08-09T17:48:52.197Z,22.91
2022-08-09T17:51:23.142Z,22.93
2022-08-09T17:53:55.933Z,22.89
2022-08-09T17:56:29.233Z,22.66
2022-08-09T17:59:11.866Z,22.76
2022-08-09T18:02:06.229Z,22.79
2022-08-09T18:04:36.844Z,22.60
2022-08-09T18:07:09.437Z,22.56
2022-08-09T18:10:04.154Z,22.62
2022-08-09T18:12:40.417Z,22.37
2022-08-09T18:16:05.634Z,22.22
2022-08-09T18:18:25.623Z,22.04
2022-08-09T18:21:19.319Z,21.82
2022-08-09T18:24:11.191Z,21.93
2022-08-09T18:26:35.159Z,21.80
2022-08-09T18:30:40.623Z,21.64
2022-08-09T18:31:58.400Z,21.84
2022-08-09T18:34:29.052Z,21.78
2022-08-09T18:36:58.442Z,21.64
2022-08-09T18:39:32.620Z,21.54
2022-08-09T18:42:08.913Z,21.39
2022-08-09T18:44:38.688Z,21.44
2022-08-09T18:47:15.883Z,21.31
2022-08-09T18:49:47.281Z,21.32
2022-08-09T18:52:18.703Z,21.22
2022-08-09T18:55:03.907Z,21.19
2022-08-09T18:57:44.680Z,21.12
2022-08-09T19:00:16.320Z,20.97
2022-08-09T19:02:54.792Z,20.78
2022-08-09T19:05:48.700Z,20.69
2022-08-09T19:08:19.775Z,20.70
2022-08-09T19:10:50.733Z,20.83
2022-08-09T19:13:23.206Z,20.86
2022-08-09T19:16:09.154Z,20.73
2022-08-09T19:18:44.457Z,20.72
2022-08-09T19:21:18.917Z,20.59
2022-08-09T19:24:39.832Z,20.27
2022-08-09T19:26:40.583Z,20.18
2022-08-09T19:29:18.160Z,20.11
2022-08-09T19:31:51.810Z,19.99
2022-08-09T19:34:24.421Z,20.09
2022-08-09T19:36:55.760Z,19.88
2022-08-09T19:39:43.262Z,19.68
2022-08-09T19:42:19.493Z,19.78
2022-08-09T19:44:51.175Z,19.73
2022-08-09T19:47:23.578Z,19.67
2022-08-09T19:50:09.647Z,19.60
2022-08-09T19:52:51.921Z,19.55
2022-08-09T19:55:25.792Z,19.41
2022-08-09T19:58:16.584Z,19.26
2022-08-09T20:00:47.427Z,19.22
2022-08-09T20:04:12.248Z,19.14
2022-08-09T20:06:22.304Z,19.22
2022-08-09T20:08:55.550Z,19.21
2022-08-09T20:11:42.983Z,19.25
2022-08-09T20:14:15.639Z,19.25
2022-08-09T20:16:50.252Z,19.13
2022-08-09T20:19:49.583Z,18.98
2022-08-09T20:22:16.647Z,18.96
2022-08-09T20:24:54.429Z,18.87
2022-08-09T20:27:24.617Z,18.77
2022-08-09T20:29:59.979Z,18.77
2022-08-09T20:32:33.804Z,18.62
2022-08-09T20:35:03.914Z,18.57
2022-08-09T20:38:19.352Z,18.33
2022-08-09T20:40:28.356Z,18.47
2022-08-09T20:43:18.552Z,18.41
2022-08-09T20:45:59.027Z,18.43
2022-08-09T20:48:32.237Z,18.34
2022-08-09T20:51:02.960Z,18.53
2022-08-09T20:53:38.557Z,18.60
2022-08-09T20:56:17.400Z,18.53
2022-08-09T20:58:54.483Z,18.39
2022-08-09T21:01:35.377Z,18.35
2022-08-09T21:05:54.935Z,18.37
2022-08-09T21:07:13.160Z,18.33
2022-08-09T21:09:55.527Z,18.37
2022-08-09T21:15:16.701Z,18.24
2022-08-09T21:18:11.526Z,18.09
2022-08-09T21:20:37.476Z,17.96
2022-08-09T21:23:09.025Z,17.83
2022-08-09T21:25:55.651Z,17.98
2022-08-09T21:28:35.042Z,18.02
2022-08-09T21:31:18.146Z,18.06
2022-08-09T21:33:52.143Z,17.89
2022-08-09T21:36:27.834Z,17.91
2022-08-09T21:38:59.549Z,17.87
2022-08-09T21:42:04.667Z,17.86
2022-08-09T21:44:33.014Z,17.79
2022-08-09T21:47:07.844Z,17.66
2022-08-09T21:49:42.950Z,17.61
2022-08-09T21:52:17.773Z,17.66
2022-08-09T21:54:51.083Z,17.69
2022-08-09T21:57:37.121Z,17.70
2022-08-09T22:00:12.794Z,17.53
2022-08-09T22:02:42.956Z,17.65
2022-08-09T22:05:22.891Z,17.59
2022-08-09T22:07:54.226Z,17.43
2022-08-09T22:10:24.184Z,17.36
2022-08-09T22:12:55.327Z,17.37
2022-08-09T22:15:33.406Z,17.43
2022-08-09T22:18:05.092Z,17.27
2022-08-09T22:20:41.635Z,17.31
2022-08-09T22:23:13.364Z,17.25
2022-08-09T22:26:06.492Z,17.23
2022-08-09T22:28:34.655Z,17.05
2022-08-09T22:31:03.999Z,17.08
2022-08-09T22:33:48.776Z,17.22
2022-08-09T22:36:19.637Z,17.15
2022-08-09T22:38:49.128Z,17.11
2022-08-09T22:41:19.342Z,17.10
2022-08-09T22:44:01.735Z,17.09
2022-08-09T22:48:13.937Z,17.10
2022-08-09T22:49:23.631Z,17.09
2022-08-09T22:51:57.480Z,16.89
2022-08-09T22:54:28.171Z,16.80
2022-08-09T22:56:58.677Z,16.73
2022-08-09T22:59:55.884Z,16.85
2022-08-09T23:02:20.293Z,16.89
2022-08-09T23:04:54.179Z,17.01
2022-08-09T23:08:29.197Z,16.92
2022-08-09T23:10:32.521Z,16.96
2022-08-09T23:13:01.975Z,16.76
2022-08-09T23:15:32.920Z,16.91
2022-08-09T23:18:02.283Z,16.63
2022-08-09T23:20:31.893Z,16.72
2022-08-09T23:23:00.857Z,16.71
2022-08-09T23:25:30.282Z,16.64
2022-08-09T23:28:14.661Z,16.66
2022-08-09T23:30:52.128Z,16.79
2022-08-09T23:33:21.729Z,16.73
2022-08-09T23:36:05.094Z,16.60
2022-08-09T23:38:49.184Z,16.68
2022-08-09T23:41:27.630Z,16.79
2022-08-09T23:43:59.702Z,16.58
2022-08-09T23:46:31.725Z,16.63
2022-08-09T23:49:01.415Z,16.69
2022-08-09T23:51:30.870Z,16.75
2022-08-09T23:54:03.041Z,16.72
2022-08-09T23:56:53.765Z,16.69
2022-08-09T23:59:24.125Z,16.50
